< < Back
Terminal Aerodrome Forecast


Current Version              Previous Versions:   1  2  3  4  5  6  7  8  9  

Terminal Aerodrome Forecast

792
FTUS44 KBMX 011028 AAA
TAFMGM
TAF AMD
KMGM 011028Z 0110/0206 00000KT 1 1/2SM BR BKN002
     FM011300 28005KT P6SM FEW250=

Latest METAR

593
SAUS80 KWBC 011800 RRJ
MTRMGM
METAR KMGM 011753Z 29008KT 10SM CLR 34/14 A3001 RMK AO2 SLP161 T03390144
10344 20239 58012


USA.gov is the U.S. government's official web portal to all federal, state and local government web resources and services.